Time;durP1;ratioP1;P1;durP2;ratioP2;P2;SDS_P1;SDS_P2;PMS_P1;PMS_P2;Temp;Humidity;BMP_temperature;BMP_pressure;BME280_temperature;BME280_humidity;BME280_pressure;Samples;Min_cycle;Max_cycle;Signal;HPM_P1;HPM_P2
2022/04/01 00:01:12;;;;;;;8.27;3.40;;;;;;;;;;5053855;28;20414;-69
2022/04/01 00:03:38;;;;;;;7.37;3.40;;;;;;;;;;5055861;28;20107;-69
2022/04/01 00:06:03;;;;;;;9.87;3.80;;;;;;;;;;5040011;28;20033;-69
2022/04/01 00:08:28;;;;;;;7.00;3.50;;;;;;;;;;5029104;28;20047;-69
2022/04/01 00:10:53;;;;;;;8.40;3.40;;;;;;;;;;5019959;28;20021;-71
2022/04/01 00:13:19;;;;;;;7.40;3.77;;;;;;;;;;5027645;28;20033;-69
2022/04/01 00:15:44;;;;;;;7.27;3.83;;;;;;;;;;5037860;28;20044;-70
2022/04/01 00:18:10;;;;;;;8.30;3.50;;;;;;;;;;5029541;28;20022;-69
2022/04/01 00:20:36;;;;;;;10.27;3.87;;;;;;;;;;5036866;28;20036;-69
2022/04/01 00:23:01;;;;;;;7.47;3.67;;;;;;;;;;5029572;28;20017;-70
2022/04/01 00:25:26;;;;;;;10.33;4.10;;;;;;;;;;5034192;28;20449;-69
2022/04/01 00:27:52;;;;;;;7.27;3.67;;;;;;;;;;5033027;28;20535;-70
2022/04/01 00:30:18;;;;;;;9.17;4.03;;;;;;;;;;5033414;28;20032;-70
2022/04/01 00:32:43;;;;;;;7.97;3.90;;;;;;;;;;5032263;28;20025;-70
2022/04/01 00:35:08;;;;;;;8.13;3.80;;;;;;;;;;5036564;28;20097;-70
2022/04/01 00:37:34;;;;;;;4.00;2.10;;;;;;;;;;5031767;28;20094;-70
2022/04/01 00:39:59;;;;;;;7.60;3.60;;;;;;;;;;5040684;28;20090;-70
2022/04/01 00:42:26;;;;;;;9.07;3.27;;;;;;;;;;5036565;28;20092;-70
2022/04/01 00:44:51;;;;;;;7.50;2.67;;;;;;;;;;5035935;28;20641;-70
2022/04/01 00:47:17;;;;;;;7.07;3.03;;;;;;;;;;5040940;28;20062;-70
2022/04/01 00:49:43;;;;;;;7.37;2.00;;;;;;;;;;5035554;28;20103;-69
2022/04/01 00:52:09;;;;;;;5.40;2.87;;;;;;;;;;5040085;28;20025;-69
2022/04/01 00:54:35;;;;;;;6.83;2.50;;;;;;;;;;5035829;28;20107;-70
2022/04/01 00:57:01;;;;;;;9.17;3.27;;;;;;;;;;5037951;28;20108;-70
2022/04/01 00:59:27;;;;;;;6.83;2.80;;;;;;;;;;5041973;28;20021;-70
2022/04/01 01:01:52;;;;;;;8.07;2.83;;;;;;;;;;5035751;28;20044;-70
2022/04/01 01:04:19;;;;;;;8.73;3.50;;;;;;;;;;5048486;28;20126;-70
2022/04/01 01:06:45;;;;;;;8.47;3.80;;;;;;;;;;5052309;28;20499;-70
2022/04/01 01:09:12;;;;;;;7.17;3.20;;;;;;;;;;5049162;28;20152;-70
2022/04/01 01:11:37;;;;;;;8.20;3.80;;;;;;;;;;5055674;28;20032;-70
2022/04/01 01:14:04;;;;;;;7.80;4.23;;;;;;;;;;5053319;28;20035;-70
2022/04/01 01:16:29;;;;;;;10.60;4.03;;;;;;;;;;5056394;28;20064;-70
2022/04/01 01:19:05;;;;;;;8.20;2.60;;;;;;;;;;5053104;28;20067;-70
2022/04/01 01:21:31;;;;;;;8.13;3.47;;;;;;;;;;5048222;28;20035;-70
2022/04/01 01:24:00;;;;;;;9.33;3.43;;;;;;;;;;5058531;28;20021;-70
2022/04/01 01:26:26;;;;;;;7.10;3.50;;;;;;;;;;5054713;28;20552;-70
2022/04/01 01:28:52;;;;;;;4.67;2.27;;;;;;;;;;5057961;28;20024;-70
2022/04/01 01:31:17;;;;;;;10.10;4.07;;;;;;;;;;5051830;28;20051;-70
2022/04/01 01:33:43;;;;;;;8.73;4.30;;;;;;;;;;5050503;28;20386;-70
2022/04/01 01:36:10;;;;;;;9.47;4.10;;;;;;;;;;5049965;28;20025;-70
2022/04/01 01:38:35;;;;;;;11.10;4.27;;;;;;;;;;5055218;28;20032;-70
2022/04/01 01:41:02;;;;;;;10.40;3.27;;;;;;;;;;5057978;28;20028;-70
2022/04/01 01:43:27;;;;;;;8.87;4.47;;;;;;;;;;5028648;28;20111;-70
2022/04/01 01:45:52;;;;;;;10.43;4.00;;;;;;;;;;5054055;28;20112;-70
2022/04/01 01:48:18;;;;;;;13.07;4.97;;;;;;;;;;5056617;28;20472;-70
2022/04/01 01:56:11;;;;;;;9.00;4.53;;;;;;;;;;5059028;28;20035;-70
2022/04/01 01:58:37;;;;;;;13.03;4.83;;;;;;;;;;5054631;28;20021;-70
2022/04/01 02:01:02;;;;;;;10.67;4.07;;;;;;;;;;5062145;28;20016;-70
2022/04/01 02:03:27;;;;;;;7.73;3.90;;;;;;;;;;5057183;28;20031;-70
2022/04/01 02:05:52;;;;;;;9.27;4.30;;;;;;;;;;5044102;28;20047;-70
2022/04/01 02:08:18;;;;;;;9.27;4.60;;;;;;;;;;5048395;28;20491;-70
2022/04/01 02:10:43;;;;;;;9.13;4.47;;;;;;;;;;5052764;28;20025;-69
2022/04/01 02:13:08;;;;;;;7.83;3.37;;;;;;;;;;5047980;28;20035;-70
2022/04/01 02:15:34;;;;;;;9.77;4.27;;;;;;;;;;5050931;28;20086;-70
2022/04/01 02:17:59;;;;;;;8.93;4.30;;;;;;;;;;5050199;28;20017;-69
2022/04/01 02:20:24;;;;;;;8.93;3.70;;;;;;;;;;5045241;28;20036;-69
2022/04/01 02:22:52;;;;;;;9.43;4.03;;;;;;;;;;5045758;28;20032;-70
2022/04/01 02:25:18;;;;;;;8.43;3.67;;;;;;;;;;5045745;28;20029;-70
2022/04/01 02:27:44;;;;;;;8.33;2.90;;;;;;;;;;5031171;28;20029;-69
2022/04/01 02:30:12;;;;;;;7.20;3.53;;;;;;;;;;5048464;28;20047;-69
2022/04/01 02:32:38;;;;;;;11.30;3.50;;;;;;;;;;5048286;28;20033;-70
2022/04/01 02:35:04;;;;;;;8.20;3.60;;;;;;;;;;5048313;28;20040;-70
2022/04/01 02:37:29;;;;;;;9.90;3.87;;;;;;;;;;5047887;28;20021;-70
2022/04/01 02:39:55;;;;;;;7.57;3.50;;;;;;;;;;5041695;28;20029;-70
2022/04/01 02:42:20;;;;;;;8.93;3.50;;;;;;;;;;5051324;28;20051;-70
2022/04/01 02:44:45;;;;;;;8.07;3.57;;;;;;;;;;5055821;28;20047;-69
2022/04/01 02:47:11;;;;;;;9.93;3.57;;;;;;;;;;5043316;28;20040;-69
2022/04/01 02:49:36;;;;;;;7.97;3.50;;;;;;;;;;5046470;28;20016;-70
2022/04/01 02:52:01;;;;;;;7.57;3.63;;;;;;;;;;5041991;28;20068;-70
2022/04/01 02:54:26;;;;;;;8.20;2.87;;;;;;;;;;5039091;28;20037;-69
2022/04/01 02:56:52;;;;;;;10.00;4.07;;;;;;;;;;5041174;28;20135;-69
2022/04/01 02:59:17;;;;;;;7.90;3.70;;;;;;;;;;5040006;28;20033;-69
2022/04/01 03:01:42;;;;;;;9.13;3.50;;;;;;;;;;5025640;28;21026;-69
2022/04/01 03:04:10;;;;;;;7.93;3.37;;;;;;;;;;5051175;28;20736;-69
2022/04/01 03:06:39;;;;;;;7.13;3.13;;;;;;;;;;5058084;28;20098;-69
2022/04/01 03:09:05;;;;;;;11.03;3.93;;;;;;;;;;5054145;28;20508;-69
2022/04/01 03:11:31;;;;;;;9.53;3.50;;;;;;;;;;5057583;28;20095;-69
2022/04/01 03:13:57;;;;;;;7.53;3.53;;;;;;;;;;5054028;28;20116;-69
2022/04/01 03:16:22;;;;;;;7.37;3.70;;;;;;;;;;5054470;28;20008;-69
2022/04/01 03:18:48;;;;;;;6.87;3.20;;;;;;;;;;5058307;28;20024;-69
2022/04/01 03:21:14;;;;;;;6.83;3.60;;;;;;;;;;5056251;28;20067;-70
2022/04/01 03:23:40;;;;;;;6.53;3.63;;;;;;;;;;5055022;28;20028;-69
2022/04/01 03:26:05;;;;;;;8.37;3.50;;;;;;;;;;5053692;28;20040;-69
2022/04/01 03:28:30;;;;;;;15.77;3.60;;;;;;;;;;5061190;28;20586;-69
2022/04/01 03:30:57;;;;;;;7.43;3.50;;;;;;;;;;5057206;28;20102;-69
2022/04/01 03:33:22;;;;;;;6.97;3.33;;;;;;;;;;5058445;28;20033;-69
2022/04/01 03:35:48;;;;;;;11.27;3.53;;;;;;;;;;5057792;28;20036;-69
2022/04/01 03:38:13;;;;;;;6.30;3.33;;;;;;;;;;5057065;28;20032;-69
2022/04/01 03:40:40;;;;;;;8.90;3.50;;;;;;;;;;5053715;28;20035;-69
2022/04/01 03:43:05;;;;;;;8.70;3.53;;;;;;;;;;5060719;28;20028;-69
2022/04/01 03:45:31;;;;;;;7.17;3.20;;;;;;;;;;5059145;28;20048;-69
2022/04/01 03:48:00;;;;;;;7.37;3.40;;;;;;;;;;5057390;28;20031;-69
2022/04/01 03:50:30;;;;;;;9.97;4.00;;;;;;;;;;5056699;28;20645;-69
2022/04/01 03:53:00;;;;;;;7.20;3.60;;;;;;;;;;5060774;28;20031;-69
2022/04/01 03:55:27;;;;;;;9.40;3.60;;;;;;;;;;5056452;28;20723;-69
2022/04/01 03:57:54;;;;;;;7.97;3.57;;;;;;;;;;5055132;28;20063;-69
2022/04/01 04:00:20;;;;;;;8.70;3.80;;;;;;;;;;5056141;28;20030;-69
2022/04/01 04:02:46;;;;;;;7.33;3.30;;;;;;;;;;5050205;28;21415;-69
2022/04/01 04:05:13;;;;;;;10.03;3.40;;;;;;;;;;5050427;28;20175;-69
2022/04/01 04:07:41;;;;;;;7.23;3.30;;;;;;;;;;5042726;28;20053;-69
2022/04/01 04:10:07;;;;;;;10.10;3.77;;;;;;;;;;5042187;28;20036;-69
2022/04/01 04:12:33;;;;;;;8.10;3.77;;;;;;;;;;5041138;28;20033;-69
2022/04/01 04:14:58;;;;;;;9.43;3.80;;;;;;;;;;5040580;28;20157;-69
2022/04/01 04:17:42;;;;;;;14.70;4.00;;;;;;;;;;5041834;28;20682;-69
2022/04/01 04:20:09;;;;;;;7.07;3.40;;;;;;;;;;5041947;28;20051;-69
2022/04/01 04:22:55;;;;;;;8.93;4.03;;;;;;;;;;5041954;28;20051;-69
2022/04/01 04:25:25;;;;;;;6.30;3.57;;;;;;;;;;5039604;28;20037;-69
2022/04/01 04:27:55;;;;;;;8.37;3.27;;;;;;;;;;5042427;28;20020;-69
2022/04/01 04:30:25;;;;;;;7.50;3.37;;;;;;;;;;5039919;28;20040;-69
2022/04/01 04:32:53;;;;;;;6.70;3.40;;;;;;;;;;5038637;28;20025;-69
2022/04/01 04:35:20;;;;;;;8.57;4.07;;;;;;;;;;5044419;28;20043;-69
2022/04/01 04:37:46;;;;;;;8.63;3.90;;;;;;;;;;5041867;28;20385;-69
2022/04/01 04:40:14;;;;;;;7.50;3.40;;;;;;;;;;5040821;28;20905;-69
2022/04/01 04:42:47;;;;;;;6.67;3.50;;;;;;;;;;5036312;28;20187;-69
2022/04/01 04:45:14;;;;;;;7.33;3.40;;;;;;;;;;5039664;28;20029;-69
2022/04/01 04:47:41;;;;;;;5.17;2.43;;;;;;;;;;5043196;28;20025;-69
2022/04/01 04:50:06;;;;;;;10.27;3.80;;;;;;;;;;5040614;28;20704;-69
2022/04/01 04:52:32;;;;;;;10.67;3.30;;;;;;;;;;5040163;28;20037;-69
2022/04/01 04:54:59;;;;;;;7.90;3.37;;;;;;;;;;5040864;28;20123;-68
2022/04/01 04:57:25;;;;;;;8.30;3.57;;;;;;;;;;5022680;28;20385;-68
2022/04/01 04:59:52;;;;;;;6.60;3.40;;;;;;;;;;5041147;28;20024;-68
2022/04/01 05:02:42;;;;;;;9.10;3.10;;;;;;;;;;5042981;28;20029;-68
2022/04/01 05:05:18;;;;;;;6.37;3.17;;;;;;;;;;5044774;28;20911;-68
2022/04/01 05:07:55;;;;;;;7.73;3.30;;;;;;;;;;5054569;28;20031;-68
2022/04/01 05:10:26;;;;;;;6.83;3.40;;;;;;;;;;5053120;28;20064;-68
2022/04/01 05:13:03;;;;;;;5.80;3.20;;;;;;;;;;5057512;28;20028;-68
2022/04/01 05:15:30;;;;;;;6.63;3.00;;;;;;;;;;5051985;28;20024;-68
2022/04/01 05:18:06;;;;;;;9.13;3.30;;;;;;;;;;5055538;28;20056;-68
2022/04/01 05:20:35;;;;;;;5.13;2.17;;;;;;;;;;5054149;28;20106;-68
2022/04/01 05:23:11;;;;;;;5.83;3.03;;;;;;;;;;5055852;28;20612;-68
2022/04/01 05:25:46;;;;;;;7.63;3.20;;;;;;;;;;5057448;28;20024;-68
2022/04/01 05:28:20;;;;;;;5.93;2.93;;;;;;;;;;5051555;28;20535;-68
2022/04/01 05:30:48;;;;;;;6.40;2.73;;;;;;;;;;5053887;28;20021;-68
2022/04/01 05:33:17;;;;;;;5.47;2.40;;;;;;;;;;5056668;28;20040;-68
2022/04/01 05:35:51;;;;;;;8.13;2.73;;;;;;;;;;5054222;28;20031;-69
2022/04/01 05:38:16;;;;;;;8.57;2.93;;;;;;;;;;5059340;28;20028;-69
2022/04/01 05:40:42;;;;;;;7.90;2.77;;;;;;;;;;5056871;28;20032;-69
2022/04/01 05:43:07;;;;;;;6.33;3.00;;;;;;;;;;5058983;28;20071;-69
2022/04/01 05:45:32;;;;;;;7.77;2.53;;;;;;;;;;5052440;28;20480;-69
2022/04/01 05:47:58;;;;;;;5.27;1.67;;;;;;;;;;5058779;28;20349;-68
2022/04/01 05:50:23;;;;;;;6.70;2.13;;;;;;;;;;5053424;28;20126;-69
2022/04/01 05:52:50;;;;;;;9.47;2.80;;;;;;;;;;5057390;28;20025;-69
2022/04/01 05:55:16;;;;;;;7.30;1.73;;;;;;;;;;5055775;28;20668;-69
2022/04/01 05:57:42;;;;;;;7.60;2.10;;;;;;;;;;5056069;28;20262;-69
2022/04/01 06:00:12;;;;;;;5.90;1.73;;;;;;;;;;5052199;28;20016;-69
2022/04/01 06:02:56;;;;;;;3.57;1.60;;;;;;;;;;5053957;28;20036;-69
2022/04/01 06:05:25;;;;;;;4.97;1.60;;;;;;;;;;5037179;28;20689;-69
2022/04/01 06:08:05;;;;;;;3.60;1.83;;;;;;;;;;5037423;28;20656;-69
2022/04/01 06:10:36;;;;;;;4.97;2.17;;;;;;;;;;5038205;28;20020;-69
2022/04/01 06:13:04;;;;;;;4.80;1.85;;;;;;;;;;5039596;28;20078;-69
2022/04/01 06:15:39;;;;;;;4.93;1.77;;;;;;;;;;5035750;28;20032;-70
2022/04/01 06:18:12;;;;;;;5.30;1.80;;;;;;;;;;5034860;28;20025;-70
2022/04/01 06:20:40;;;;;;;4.57;2.20;;;;;;;;;;5036212;28;20413;-71
2022/04/01 06:23:14;;;;;;;6.97;2.40;;;;;;;;;;5036530;28;20024;-69
2022/04/01 06:25:43;;;;;;;4.30;2.10;;;;;;;;;;5036370;28;20108;-69
2022/04/01 06:28:16;;;;;;;7.13;2.80;;;;;;;;;;5038366;28;20025;-69
2022/04/01 06:30:43;;;;;;;6.13;2.60;;;;;;;;;;5035498;28;20021;-69
2022/04/01 06:33:28;;;;;;;7.70;2.10;;;;;;;;;;5038554;28;20107;-69
2022/04/01 06:36:00;;;;;;;6.50;2.10;;;;;;;;;;5035370;28;20025;-69
2022/04/01 06:38:31;;;;;;;7.00;2.90;;;;;;;;;;5039455;28;20100;-69
2022/04/01 06:40:58;;;;;;;5.63;2.33;;;;;;;;;;5041256;28;20353;-66
2022/04/01 06:43:24;;;;;;;7.77;2.73;;;;;;;;;;5043060;28;20039;-69
2022/04/01 06:45:49;;;;;;;7.37;2.70;;;;;;;;;;5043349;28;20025;-69
2022/04/01 06:48:14;;;;;;;5.43;2.20;;;;;;;;;;5043691;28;20031;-69
2022/04/01 06:50:42;;;;;;;7.50;2.40;;;;;;;;;;5039985;28;20033;-69
2022/04/01 06:53:08;;;;;;;7.27;2.80;;;;;;;;;;5043666;28;20082;-69
2022/04/01 06:55:34;;;;;;;9.00;2.50;;;;;;;;;;5042519;28;20021;-69
2022/04/01 06:57:59;;;;;;;5.80;2.63;;;;;;;;;;5043703;28;20531;-69
2022/04/01 07:00:26;;;;;;;6.53;2.50;;;;;;;;;;5041356;28;20037;-69
2022/04/01 07:02:51;;;;;;;6.20;2.40;;;;;;;;;;5043060;28;20178;-69
2022/04/01 07:05:16;;;;;;;6.77;2.10;;;;;;;;;;5050536;28;20123;-69
2022/04/01 07:07:44;;;;;;;6.07;2.43;;;;;;;;;;5045538;28;20610;-69
2022/04/01 07:10:13;;;;;;;5.67;2.40;;;;;;;;;;5052512;28;20605;-69
2022/04/01 07:12:39;;;;;;;4.80;2.33;;;;;;;;;;5056343;28;20023;-69
2022/04/01 07:15:07;;;;;;;10.60;2.83;;;;;;;;;;5058196;28;20036;-68
2022/04/01 07:17:32;;;;;;;7.77;2.50;;;;;;;;;;5053090;28;20631;-69
2022/04/01 07:19:57;;;;;;;9.37;3.73;;;;;;;;;;5055116;28;20084;-69
2022/04/01 07:22:23;;;;;;;5.93;2.60;;;;;;;;;;5058242;28;20016;-68
2022/04/01 07:24:48;;;;;;;9.47;3.03;;;;;;;;;;5055491;28;20044;-69
2022/04/01 07:27:14;;;;;;;7.67;2.80;;;;;;;;;;5055786;28;20039;-69
2022/04/01 07:29:39;;;;;;;7.63;2.97;;;;;;;;;;5054165;28;20029;-69
2022/04/01 07:34:49;;;;;;;6.00;2.67;;;;;;;;;;5056931;28;20554;-69
2022/04/01 07:37:14;;;;;;;4.87;2.57;;;;;;;;;;5057878;28;20029;-69
2022/04/01 07:39:40;;;;;;;9.17;2.90;;;;;;;;;;5056713;28;20107;-69
2022/04/01 07:42:06;;;;;;;9.00;2.77;;;;;;;;;;5058265;28;20082;-69
2022/04/01 07:44:31;;;;;;;6.50;2.70;;;;;;;;;;5057109;28;20021;-69
2022/04/01 07:46:56;;;;;;;7.90;3.23;;;;;;;;;;5054702;28;20043;-69
2022/04/01 07:49:22;;;;;;;6.30;3.10;;;;;;;;;;5056417;28;20672;-68
2022/04/01 07:51:47;;;;;;;6.27;2.87;;;;;;;;;;5055055;28;20024;-68
2022/04/01 07:54:13;;;;;;;9.70;2.80;;;;;;;;;;5056262;28;20123;-68
2022/04/01 07:56:40;;;;;;;8.73;3.20;;;;;;;;;;5055672;28;20079;-67
2022/04/01 07:59:06;;;;;;;7.30;3.00;;;;;;;;;;5054753;28;20025;-68
2022/04/01 08:01:31;;;;;;;5.47;2.10;;;;;;;;;;5057728;28;20021;-67
2022/04/01 08:03:56;;;;;;;7.30;3.13;;;;;;;;;;5055854;28;20131;-65
2022/04/01 08:06:21;;;;;;;6.10;2.70;;;;;;;;;;5054841;28;20107;-67
2022/04/01 08:08:47;;;;;;;8.57;3.03;;;;;;;;;;5056417;28;20036;-67
2022/04/01 08:11:12;;;;;;;6.57;2.80;;;;;;;;;;5055653;28;20649;-67
2022/04/01 08:13:37;;;;;;;7.50;2.80;;;;;;;;;;5057589;28;20132;-67
2022/04/01 08:16:03;;;;;;;8.40;3.10;;;;;;;;;;5055434;28;20141;-67
2022/04/01 08:18:28;;;;;;;13.63;3.83;;;;;;;;;;5055642;28;20449;-67
2022/04/01 08:20:53;;;;;;;7.57;3.53;;;;;;;;;;5058833;28;20020;-67
2022/04/01 08:23:19;;;;;;;7.80;3.30;;;;;;;;;;5056890;28;20453;-67
2022/04/01 08:25:45;;;;;;;5.67;2.77;;;;;;;;;;5054718;28;20531;-67
2022/04/01 08:28:10;;;;;;;5.37;2.07;;;;;;;;;;5056137;28;20028;-66
2022/04/01 08:30:36;;;;;;;9.00;3.50;;;;;;;;;;5051959;28;20017;-67
2022/04/01 08:33:01;;;;;;;8.20;3.20;;;;;;;;;;5059608;28;20044;-67
2022/04/01 08:35:28;;;;;;;9.10;3.73;;;;;;;;;;5052581;28;20121;-67
2022/04/01 08:37:55;;;;;;;6.40;3.60;;;;;;;;;;5052395;28;20035;-68
2022/04/01 08:40:20;;;;;;;5.60;2.70;;;;;;;;;;5051849;28;20025;-68
2022/04/01 08:42:46;;;;;;;10.60;3.53;;;;;;;;;;5056222;28;20131;-68
2022/04/01 08:45:12;;;;;;;5.90;3.17;;;;;;;;;;5058781;28;20044;-68
2022/04/01 08:47:38;;;;;;;6.07;3.03;;;;;;;;;;5059000;28;20436;-68
2022/04/01 08:50:04;;;;;;;11.53;2.50;;;;;;;;;;5052045;28;20044;-68
2022/04/01 08:52:29;;;;;;;8.73;3.50;;;;;;;;;;5048350;28;20814;-68
2022/04/01 08:54:54;;;;;;;4.90;2.13;;;;;;;;;;5055929;28;20021;-68
2022/04/01 08:57:21;;;;;;;7.30;2.43;;;;;;;;;;5049465;28;20653;-68
2022/04/01 08:59:46;;;;;;;7.73;3.60;;;;;;;;;;5055322;28;20129;-68
2022/04/01 09:02:12;;;;;;;6.73;3.23;;;;;;;;;;5052162;28;20056;-68
2022/04/01 09:04:37;;;;;;;8.67;2.50;;;;;;;;;;5053686;28;20053;-67
2022/04/01 09:07:13;;;;;;;7.60;2.47;;;;;;;;;;5053700;28;20043;-68
2022/04/01 09:09:38;;;;;;;6.03;2.40;;;;;;;;;;5053052;28;20021;-67
2022/04/01 09:12:03;;;;;;;8.93;3.47;;;;;;;;;;5055883;28;20120;-68
2022/04/01 09:14:29;;;;;;;9.30;3.33;;;;;;;;;;5055706;28;20523;-68
2022/04/01 09:16:55;;;;;;;7.20;3.00;;;;;;;;;;5058131;28;20031;-68
2022/04/01 09:19:27;;;;;;;13.47;3.90;;;;;;;;;;5052135;28;20103;-68
2022/04/01 09:21:53;;;;;;;8.97;2.43;;;;;;;;;;5051038;28;20115;-67
2022/04/01 09:24:18;;;;;;;7.03;3.00;;;;;;;;;;5053199;28;20115;-68
2022/04/01 09:26:43;;;;;;;6.87;3.30;;;;;;;;;;5050124;28;20752;-67
2022/04/01 09:29:10;;;;;;;9.20;3.83;;;;;;;;;;5051771;28;20086;-68
2022/04/01 09:31:39;;;;;;;13.37;3.57;;;;;;;;;;5053367;28;20035;-68
2022/04/01 09:34:09;;;;;;;6.50;3.47;;;;;;;;;;5056580;28;20024;-67
2022/04/01 09:36:38;;;;;;;7.63;3.20;;;;;;;;;;5050121;28;20389;-68
2022/04/01 09:39:03;;;;;;;6.00;2.97;;;;;;;;;;5058163;28;20032;-67
2022/04/01 09:41:49;;;;;;;8.13;3.73;;;;;;;;;;5055005;28;20526;-68
2022/04/01 09:44:17;;;;;;;6.50;3.47;;;;;;;;;;5049728;28;20044;-68
2022/04/01 09:46:46;;;;;;;6.00;2.53;;;;;;;;;;5055516;28;20025;-67
2022/04/01 09:49:12;;;;;;;8.70;3.80;;;;;;;;;;5055676;28;20477;-68
2022/04/01 09:51:40;;;;;;;5.30;2.97;;;;;;;;;;5054245;28;20048;-67
2022/04/01 09:54:06;;;;;;;7.30;3.80;;;;;;;;;;5056981;28;20024;-68
2022/04/01 09:56:35;;;;;;;6.77;3.30;;;;;;;;;;5055916;28;20874;-68
2022/04/01 09:59:02;;;;;;;9.47;3.80;;;;;;;;;;5045801;28;20078;-68
2022/04/01 10:01:27;;;;;;;6.03;3.23;;;;;;;;;;5058558;28;20025;-68
2022/04/01 10:03:52;;;;;;;9.67;2.37;;;;;;;;;;5050497;28;20066;-67
2022/04/01 10:06:17;;;;;;;6.73;3.47;;;;;;;;;;5046046;28;20170;-67
2022/04/01 10:08:43;;;;;;;8.83;3.43;;;;;;;;;;5053850;28;20028;-67
2022/04/01 10:11:09;;;;;;;5.20;2.63;;;;;;;;;;5049668;28;20079;-67
2022/04/01 10:13:35;;;;;;;7.47;3.17;;;;;;;;;;5045089;28;20032;-67
2022/04/01 10:16:01;;;;;;;5.20;2.47;;;;;;;;;;5060909;28;20094;-67
2022/04/01 10:18:27;;;;;;;9.67;3.73;;;;;;;;;;5060817;28;20032;-67
2022/04/01 10:20:53;;;;;;;7.27;3.60;;;;;;;;;;5058011;28;20395;-67
2022/04/01 10:23:18;;;;;;;9.97;3.33;;;;;;;;;;5056497;28;20773;-67
2022/04/01 10:25:50;;;;;;;6.17;3.00;;;;;;;;;;5050863;28;20021;-67
2022/04/01 10:28:17;;;;;;;8.13;3.92;;;;;;;;;;5061368;28;20764;-67
2022/04/01 10:30:50;;;;;;;12.07;4.33;;;;;;;;;;5058686;28;20035;-70
2022/04/01 10:33:20;;;;;;;6.27;3.30;;;;;;;;;;5049150;28;20140;-67
2022/04/01 10:35:45;;;;;;;8.43;3.80;;;;;;;;;;5057677;28;20074;-67
2022/04/01 10:38:11;;;;;;;11.17;4.30;;;;;;;;;;5058742;28;20657;-67
2022/04/01 10:40:38;;;;;;;7.67;3.90;;;;;;;;;;5051572;28;20688;-67
2022/04/01 10:43:09;;;;;;;7.90;3.83;;;;;;;;;;5057785;28;20024;-67
2022/04/01 10:45:37;;;;;;;7.60;4.07;;;;;;;;;;5055929;28;20103;-68
2022/04/01 10:53:57;;;;;;;5.57;2.37;;;;;;;;;;5055743;28;20043;-67
2022/04/01 10:56:22;;;;;;;8.17;3.83;;;;;;;;;;5060773;28;20111;-68
2022/04/01 10:59:08;;;;;;;8.00;4.10;;;;;;;;;;5056845;28;20040;-68
2022/04/01 11:01:34;;;;;;;10.70;4.33;;;;;;;;;;5056147;28;20495;-68
2022/04/01 11:04:08;;;;;;;12.00;4.40;;;;;;;;;;5062349;28;20413;-68
2022/04/01 11:06:49;;;;;;;9.73;4.50;;;;;;;;;;5045870;28;20071;-69
2022/04/01 11:09:31;;;;;;;7.23;3.87;;;;;;;;;;5043004;28;20565;-68
2022/04/01 11:12:25;;;;;;;5.03;2.43;;;;;;;;;;5041350;28;20104;-68
2022/04/01 11:14:53;;;;;;;6.93;3.07;;;;;;;;;;5044304;28;20028;-68
2022/04/01 11:17:19;;;;;;;10.53;4.37;;;;;;;;;;5043110;28;20033;-68
2022/04/01 11:19:58;;;;;;;8.47;4.37;;;;;;;;;;5043184;28;20206;-68
2022/04/01 11:22:42;;;;;;;6.93;3.60;;;;;;;;;;5045167;28;20040;-68
2022/04/01 11:25:11;;;;;;;7.10;3.30;;;;;;;;;;5043154;28;20152;-66
2022/04/01 11:27:42;;;;;;;9.33;3.50;;;;;;;;;;5043649;28;20036;-67
2022/04/01 11:30:14;;;;;;;8.50;3.30;;;;;;;;;;5043155;28;20036;-67
2022/04/01 11:32:40;;;;;;;4.77;2.27;;;;;;;;;;5043674;28;20549;-67
2022/04/01 11:35:06;;;;;;;8.20;3.20;;;;;;;;;;5042641;28;20404;-67
2022/04/01 11:37:45;;;;;;;7.97;3.30;;;;;;;;;;5043538;28;20107;-66
2022/04/01 11:40:12;;;;;;;6.27;3.60;;;;;;;;;;5042935;28;20180;-67
2022/04/01 11:42:53;;;;;;;6.30;3.17;;;;;;;;;;5045198;28;20025;-66
2022/04/01 11:45:19;;;;;;;7.93;3.47;;;;;;;;;;5045271;28;20036;-66
2022/04/01 11:47:45;;;;;;;5.90;3.20;;;;;;;;;;5042266;28;20021;-67
2022/04/01 11:50:11;;;;;;;5.07;2.73;;;;;;;;;;5042449;28;20025;-66
2022/04/01 11:52:38;;;;;;;8.93;3.90;;;;;;;;;;5044929;28;20039;-67
2022/04/01 11:55:10;;;;;;;5.63;3.00;;;;;;;;;;5042460;28;20061;-66
2022/04/01 11:57:35;;;;;;;10.37;4.10;;;;;;;;;;5042797;28;20023;-66
2022/04/01 12:00:01;;;;;;;15.60;4.67;;;;;;;;;;5042680;28;20013;-66
2022/04/01 12:02:28;;;;;;;11.27;4.37;;;;;;;;;;5030865;28;20019;-66
2022/04/01 12:04:53;;;;;;;6.80;3.90;;;;;;;;;;5047980;28;20072;-66
2022/04/01 12:10:04;;;;;;;8.87;3.80;;;;;;;;;;5052850;28;20110;-66
2022/04/01 12:12:30;;;;;;;8.80;4.00;;;;;;;;;;5055487;28;20032;-66
2022/04/01 12:14:57;;;;;;;8.13;3.83;;;;;;;;;;5062999;28;20036;-66
2022/04/01 12:17:22;;;;;;;5.57;3.00;;;;;;;;;;5056940;28;20031;-68
2022/04/01 12:19:48;;;;;;;9.27;3.90;;;;;;;;;;5055314;28;20029;-69
2022/04/01 12:22:13;;;;;;;8.87;3.80;;;;;;;;;;5059049;28;20392;-69
2022/04/01 12:24:39;;;;;;;7.80;3.30;;;;;;;;;;5057501;28;20024;-68
2022/04/01 12:27:09;;;;;;;9.20;3.83;;;;;;;;;;5059014;28;20032;-69
2022/04/01 12:29:35;;;;;;;9.63;4.27;;;;;;;;;;5062503;28;20024;-69
2022/04/01 12:32:03;;;;;;;8.87;3.93;;;;;;;;;;5058689;28;20090;-68
2022/04/01 12:34:28;;;;;;;8.37;4.47;;;;;;;;;;5032780;28;20055;-69
2022/04/01 12:37:00;;;;;;;6.30;3.40;;;;;;;;;;5054779;28;20106;-69
2022/04/01 12:39:25;;;;;;;7.75;3.78;;;;;;;;;;5054160;28;20033;-69
2022/04/01 12:41:59;;;;;;;8.23;3.83;;;;;;;;;;5054476;28;20132;-69
2022/04/01 12:44:25;;;;;;;7.57;3.70;;;;;;;;;;5061156;28;20062;-66
2022/04/01 12:46:51;;;;;;;8.47;4.10;;;;;;;;;;5058555;28;20021;-66
2022/04/01 12:49:17;;;;;;;8.33;4.00;;;;;;;;;;5058249;28;20462;-66
2022/04/01 12:51:48;;;;;;;10.10;3.57;;;;;;;;;;5058000;28;20017;-66
2022/04/01 12:54:23;;;;;;;6.88;3.40;;;;;;;;;;5051912;28;20036;-66
2022/04/01 12:56:51;;;;;;;9.67;3.77;;;;;;;;;;5038543;28;20058;-66
2022/04/01 12:59:18;;;;;;;8.60;3.80;;;;;;;;;;5051444;28;20033;-66
2022/04/01 13:01:44;;;;;;;8.03;3.33;;;;;;;;;;5054823;28;20381;-66
2022/04/01 13:04:16;;;;;;;9.67;3.63;;;;;;;;;;5045704;28;20106;-66
2022/04/01 13:06:41;;;;;;;;;;;;;;;;;;5055713;28;20501;-66
2022/04/01 13:09:07;;;;;;;11.40;3.25;;;;;;;;;;5058183;28;19966;-66
2022/04/01 13:11:34;;;;;;;7.33;3.33;;;;;;;;;;5054785;28;20120;-66
2022/04/01 13:13:59;;;;;;;7.50;2.97;;;;;;;;;;5051746;28;20039;-66
2022/04/01 13:16:33;;;;;;;12.17;3.13;;;;;;;;;;5050579;28;20024;-66
2022/04/01 13:19:16;;;;;;;8.83;3.73;;;;;;;;;;5051263;28;20479;-66
2022/04/01 13:21:41;;;;;;;5.60;3.17;;;;;;;;;;5055039;28;20035;-66
2022/04/01 13:24:06;;;;;;;6.97;3.17;;;;;;;;;;5053525;28;20028;-66
2022/04/01 13:26:31;;;;;;;7.17;3.10;;;;;;;;;;5052875;28;20032;-66
2022/04/01 13:28:57;;;;;;;6.00;2.90;;;;;;;;;;5053947;28;20661;-66
2022/04/01 13:31:22;;;;;;;6.73;2.67;;;;;;;;;;5050384;28;20048;-66
2022/04/01 13:33:48;;;;;;;5.93;2.70;;;;;;;;;;5050975;28;20500;-66
2022/04/01 13:36:13;;;;;;;7.77;2.97;;;;;;;;;;5056785;28;20040;-67
2022/04/01 13:38:38;;;;;;;5.97;2.60;;;;;;;;;;5055947;28;20787;-67
2022/04/01 13:41:04;;;;;;;6.87;2.57;;;;;;;;;;5055441;28;20024;-67
2022/04/01 13:43:30;;;;;;;8.93;2.60;;;;;;;;;;5054825;28;20024;-67
2022/04/01 13:45:57;;;;;;;5.87;2.70;;;;;;;;;;5052384;28;20109;-66
2022/04/01 13:48:24;;;;;;;6.83;2.80;;;;;;;;;;5054345;28;20550;-67
2022/04/01 13:50:53;;;;;;;6.43;2.50;;;;;;;;;;5053463;28;20024;-67
2022/04/01 13:53:18;;;;;;;6.87;2.53;;;;;;;;;;5052859;28;20131;-67
2022/04/01 13:55:43;;;;;;;7.30;2.50;;;;;;;;;;5053489;28;20213;-67
2022/04/01 13:58:08;;;;;;;7.37;2.57;;;;;;;;;;5050199;28;20044;-66
2022/04/01 14:00:34;;;;;;;6.87;2.43;;;;;;;;;;5053344;28;20043;-66
2022/04/01 14:02:59;;;;;;;7.60;2.60;;;;;;;;;;5057038;28;20016;-66
2022/04/01 14:05:24;;;;;;;5.00;2.60;;;;;;;;;;5055980;28;20408;-66
2022/04/01 14:07:49;;;;;;;2.70;1.50;;;;;;;;;;5049810;28;20155;-65
2022/04/01 14:10:15;;;;;;;5.57;2.67;;;;;;;;;;5049358;28;20075;-66
2022/04/01 14:12:44;;;;;;;7.60;2.50;;;;;;;;;;5058291;28;20139;-65
2022/04/01 14:15:11;;;;;;;7.07;2.47;;;;;;;;;;5051953;28;20084;-66
2022/04/01 14:17:36;;;;;;;5.27;2.30;;;;;;;;;;5051705;28;20186;-66
2022/04/01 14:20:04;;;;;;;5.43;2.53;;;;;;;;;;5054974;28;20108;-66
2022/04/01 14:22:29;;;;;;;6.57;2.83;;;;;;;;;;5055322;28;20025;-66
2022/04/01 14:24:54;;;;;;;6.40;2.30;;;;;;;;;;5057527;28;20094;-66
2022/04/01 14:27:20;;;;;;;4.77;2.50;;;;;;;;;;5053177;28;20035;-66
2022/04/01 14:32:28;;;;;;;7.77;2.50;;;;;;;;;;5055195;28;20579;-66
2022/04/01 14:34:54;;;;;;;8.90;2.57;;;;;;;;;;5059136;28;20028;-66
2022/04/01 14:37:19;;;;;;;8.37;2.30;;;;;;;;;;5052581;28;20028;-66
2022/04/01 14:39:44;;;;;;;5.50;2.50;;;;;;;;;;5049281;28;20027;-68
2022/04/01 14:42:11;;;;;;;5.33;2.30;;;;;;;;;;5057228;28;20043;-68
2022/04/01 14:44:36;;;;;;;8.43;2.60;;;;;;;;;;5051630;28;20033;-66
2022/04/01 14:47:01;;;;;;;4.93;2.20;;;;;;;;;;5055170;28;20037;-66
2022/04/01 14:49:27;;;;;;;4.67;1.97;;;;;;;;;;5051713;28;20036;-66
2022/04/01 14:51:52;;;;;;;4.70;2.40;;;;;;;;;;5051457;28;20024;-66
2022/04/01 14:54:17;;;;;;;9.63;2.20;;;;;;;;;;5054159;28;20110;-66
2022/04/01 14:56:43;;;;;;;8.47;2.27;;;;;;;;;;5055893;28;20028;-66
2022/04/01 14:59:08;;;;;;;4.73;2.63;;;;;;;;;;5056921;28;20032;-67
2022/04/01 15:01:34;;;;;;;6.77;2.30;;;;;;;;;;5058657;28;20021;-67
2022/04/01 15:04:00;;;;;;;7.93;2.53;;;;;;;;;;5059760;28;20448;-67